Time;durP1;ratioP1;P1;durP2;ratioP2;P2;SDS_P1;SDS_P2;PMS_P1;PMS_P2;Temp;Humidity;BMP_temperature;BMP_pressure;BME280_temperature;BME280_humidity;BME280_pressure;Samples;Min_cycle;Max_cycle;Signal;HPM_P1;HPM_P2
2020/12/22 00:01:40;;;;;;;;;;;;;;;3.34;100.00;100664.41;5031045;28;19929;-73
2020/12/22 00:04:06;;;;;;;;;;;;;;;3.35;100.00;100650.06;5030980;28;20283;-73
2020/12/22 00:06:32;;;;;;;;;;;;;;;3.37;100.00;100639.22;5030340;28;19925;-72
2020/12/22 00:08:58;;;;;;;;;;;;;;;3.40;100.00;100631.00;5029789;28;20386;-72
2020/12/22 00:11:23;;;;;;;;;;;;;;;3.44;100.00;100634.41;5030745;28;19933;-72
2020/12/22 00:13:50;;;;;;;;;;;;;;;3.46;100.00;100627.13;5030765;28;19940;-73
2020/12/22 00:16:16;;;;;;;;;;;;;;;3.49;100.00;100629.66;5030673;28;19956;-73
2020/12/22 00:18:42;;;;;;;;;;;;;;;3.51;100.00;100639.38;5030601;28;19925;-72
2020/12/22 00:21:07;;;;;;;;;;;;;;;3.52;100.00;100641.09;5030929;28;19936;-72
2020/12/22 00:23:33;;;;;;;;;;;;;;;3.52;100.00;100619.63;5031026;28;19926;-72
2020/12/22 00:25:59;;;;;;;;;;;;;;;3.57;100.00;100622.06;5030486;28;19925;-73
2020/12/22 00:28:25;;;;;;;;;;;;;;;3.58;100.00;100617.56;5030847;28;20285;-72
2020/12/22 00:30:52;;;;;;;;;;;;;;;3.57;100.00;100605.97;5030436;28;20457;-72
2020/12/22 00:33:17;;;;;;;;;;;;;;;3.57;100.00;100591.66;5030811;28;19929;-72
2020/12/22 00:35:43;;;;;;;;;;;;;;;3.57;100.00;100592.53;5031497;28;20368;-72
2020/12/22 00:38:09;;;;;;;;;;;;;;;3.61;100.00;100594.09;5034230;28;19929;-72
2020/12/22 00:40:35;;;;;;;;;;;;;;;3.64;100.00;100598.44;5034417;28;19925;-72
2020/12/22 00:43:02;;;;;;;;;;;;;;;3.65;100.00;100592.13;5034238;28;19976;-72
2020/12/22 00:45:29;;;;;;;;;;;;;;;3.67;100.00;100593.78;5034282;28;19960;-72
2020/12/22 00:47:56;;;;;;;;;;;;;;;3.71;100.00;100578.34;5033520;28;19968;-73
2020/12/22 00:50:22;;;;;;;;;;;;;;;3.74;100.00;100564.78;5032929;28;20354;-73
2020/12/22 00:52:48;;;;;;;;;;;;;;;3.76;100.00;100580.81;5034127;28;19925;-72
2020/12/22 00:55:17;;;;;;;;;;;;;;;3.77;100.00;100567.28;5032900;28;19932;-72
2020/12/22 00:57:45;;;;;;;;;;;;;;;3.79;100.00;100565.38;5032444;28;19925;-72
2020/12/22 01:00:12;;;;;;;;;;;;;;;3.81;100.00;100573.38;5032831;28;19925;-72
2020/12/22 01:02:38;;;;;;;;;;;;;;;3.82;100.00;100561.66;5033769;28;20010;-73
2020/12/22 01:05:05;;;;;;;;;;;;;;;3.83;100.00;100558.00;5033546;28;19926;-72
2020/12/22 01:07:30;;;;;;;;;;;;;;;3.83;100.00;100553.50;5033513;28;20147;-72
2020/12/22 01:09:56;;;;;;;;;;;;;;;3.82;100.00;100537.47;5033758;28;19933;-72
2020/12/22 01:12:22;;;;;;;;;;;;;;;3.82;100.00;100519.56;5033805;28;19932;-73
2020/12/22 01:14:48;;;;;;;;;;;;;;;3.86;100.00;100520.25;5033668;28;19925;-72
2020/12/22 01:17:13;;;;;;;;;;;;;;;3.87;100.00;100502.31;5033332;28;19931;-73
2020/12/22 01:19:39;;;;;;;;;;;;;;;3.87;100.00;100502.31;5033449;28;20310;-73
2020/12/22 01:22:06;;;;;;;;;;;;;;;3.89;100.00;100511.16;5032197;28;19925;-73
2020/12/22 01:24:32;;;;;;;;;;;;;;;3.90;100.00;100511.09;5033309;28;19960;-72
2020/12/22 01:26:57;;;;;;;;;;;;;;;3.93;100.00;100499.28;5033113;28;19925;-73
2020/12/22 01:29:23;;;;;;;;;;;;;;;3.96;100.00;100491.91;5033327;28;20478;-73
2020/12/22 01:31:49;;;;;;;;;;;;;;;4.00;100.00;100497.97;5033473;28;19925;-73
2020/12/22 01:34:15;;;;;;;;;;;;;;;4.01;100.00;100487.16;5033430;28;19925;-73
2020/12/22 01:36:41;;;;;;;;;;;;;;;4.07;100.00;100495.81;5033000;28;19979;-73
2020/12/22 01:39:08;;;;;;;;;;;;;;;4.07;100.00;100491.28;5031983;28;19925;-70
2020/12/22 01:41:34;;;;;;;;;;;;;;;4.09;100.00;100493.88;5033228;28;20015;-72
2020/12/22 01:44:01;;;;;;;;;;;;;;;4.10;100.00;100463.38;5032785;28;19961;-73
2020/12/22 01:46:29;;;;;;;;;;;;;;;4.14;100.00;100462.25;5032924;28;20291;-73
2020/12/22 01:48:55;;;;;;;;;;;;;;;4.16;100.00;100458.53;5032521;28;20028;-72
2020/12/22 01:51:22;;;;;;;;;;;;;;;4.18;100.00;100437.81;5032995;28;19994;-72
2020/12/22 01:53:47;;;;;;;;;;;;;;;4.29;100.00;100438.97;5033029;28;19932;-73
2020/12/22 01:56:14;;;;;;;;;;;;;;;4.33;100.00;100437.88;5032692;28;20597;-73
2020/12/22 01:58:40;;;;;;;;;;;;;;;4.31;100.00;100440.63;5035542;28;19968;-72
2020/12/22 02:01:05;;;;;;;;;;;;;;;4.30;100.00;100419.22;5032501;28;19932;-73
2020/12/22 02:03:31;;;;;;;;;;;;;;;4.33;100.00;100427.13;5032935;28;20386;-72
2020/12/22 02:05:57;;;;;;;;;;;;;;;4.34;100.00;100412.69;5032520;28;19932;-72
2020/12/22 02:08:23;;;;;;;;;;;;;;;4.34;100.00;100412.69;5032596;28;19925;-73
2020/12/22 02:10:49;;;;;;;;;;;;;;;4.35;100.00;100411.75;5032720;28;19925;-73
2020/12/22 02:13:16;;;;;;;;;;;;;;;4.37;100.00;100415.22;5032514;28;19925;-72
2020/12/22 02:15:42;;;;;;;;;;;;;;;4.39;100.00;100399.84;5032234;28;20421;-73
2020/12/22 02:18:07;;;;;;;;;;;;;;;4.41;100.00;100407.81;5032131;28;20036;-72
2020/12/22 02:20:33;;;;;;;;;;;;;;;4.34;100.00;100397.47;5032330;28;19959;-73
2020/12/22 02:23:00;;;;;;;;;;;;;;;4.33;100.00;100394.88;5032302;28;20409;-73
2020/12/22 02:25:25;;;;;;;;;;;;;;;4.32;100.00;100383.22;5032330;28;20412;-73
2020/12/22 02:27:51;;;;;;;;;;;;;;;4.31;100.00;100396.78;5031856;28;19940;-73
2020/12/22 02:30:18;;;;;;;;;;;;;;;4.32;100.00;100387.75;5032105;28;20306;-73
2020/12/22 02:32:44;;;;;;;;;;;;;;;4.31;100.00;100380.66;5031931;28;20020;-72
2020/12/22 02:35:10;;;;;;;;;;;;;;;4.33;100.00;100378.75;5032069;28;19925;-73
2020/12/22 02:37:35;;;;;;;;;;;;;;;4.32;100.00;100375.16;5031794;28;19925;-73
2020/12/22 02:40:02;;;;;;;;;;;;;;;4.34;100.00;100364.31;5031915;28;19932;-73
2020/12/22 02:42:28;;;;;;;;;;;;;;;4.31;100.00;100378.81;5031989;28;20478;-73
2020/12/22 02:44:54;;;;;;;;;;;;;;;4.31;100.00;100369.91;5031886;28;19925;-73
2020/12/22 02:47:20;;;;;;;;;;;;;;;4.32;100.00;100371.63;5031468;28;20272;-73
2020/12/22 02:49:45;;;;;;;;;;;;;;;4.33;100.00;100358.09;5030719;28;19931;-73
2020/12/22 02:52:11;;;;;;;;;;;;;;;4.33;100.00;100350.03;5031440;28;19937;-73
2020/12/22 02:54:37;;;;;;;;;;;;;;;4.32;100.00;100352.81;5031900;28;19932;-73
2020/12/22 02:57:04;;;;;;;;;;;;;;;4.27;100.00;100355.78;5031489;28;20383;-73
2020/12/22 02:59:29;;;;;;;;;;;;;;;4.23;100.00;100353.38;5030880;28;19925;-73
2020/12/22 03:01:55;;;;;;;;;;;;;;;4.19;100.00;100350.00;5031618;28;19948;-73
2020/12/22 03:04:21;;;;;;;;;;;;;;;4.13;100.00;100345.88;5031704;28;19925;-73
2020/12/22 03:06:47;;;;;;;;;;;;;;;4.12;100.00;100337.91;5031436;28;19925;-73
2020/12/22 03:09:15;;;;;;;;;;;;;;;4.10;100.00;100329.94;5031605;28;20289;-73
2020/12/22 03:11:40;;;;;;;;;;;;;;;4.09;100.00;100312.09;5031376;28;19967;-72
2020/12/22 03:14:07;;;;;;;;;;;;;;;4.06;100.00;100325.69;5031446;28;19925;-72
2020/12/22 03:16:33;;;;;;;;;;;;;;;4.04;100.00;100326.78;5031216;28;20286;-72
2020/12/22 03:18:58;;;;;;;;;;;;;;;4.00;100.00;100318.88;5031330;28;19925;-72
2020/12/22 03:21:24;;;;;;;;;;;;;;;4.00;100.00;100312.66;5031399;28;19948;-72
2020/12/22 03:23:50;;;;;;;;;;;;;;;3.97;100.00;100302.94;5031607;28;19932;-72
2020/12/22 03:26:16;;;;;;;;;;;;;;;3.99;100.00;100310.91;5031174;28;19929;-72
2020/12/22 03:28:42;;;;;;;;;;;;;;;3.97;100.00;100304.78;5031112;28;19925;-74
2020/12/22 03:31:08;;;;;;;;;;;;;;;3.97;100.00;100288.69;5031180;28;19929;-73
2020/12/22 03:33:34;;;;;;;;;;;;;;;3.96;100.00;100287.78;5031385;28;20076;-74
2020/12/22 03:36:00;;;;;;;;;;;;;;;3.96;100.00;100281.56;5031057;28;19929;-74
2020/12/22 03:38:26;;;;;;;;;;;;;;;3.96;100.00;100276.19;5031168;28;19925;-74
2020/12/22 03:40:51;;;;;;;;;;;;;;;3.93;100.00;100285.31;5032601;28;19936;-73
2020/12/22 03:43:17;;;;;;;;;;;;;;;3.94;100.00;100281.66;5031227;28;20697;-73
2020/12/22 03:45:43;;;;;;;;;;;;;;;3.94;100.00;100268.25;5030913;28;19925;-73
2020/12/22 03:48:09;;;;;;;;;;;;;;;3.95;100.00;100269.09;5030671;28;19933;-73
2020/12/22 03:50:35;;;;;;;;;;;;;;;3.94;100.00;100264.66;5031221;28;20020;-73
2020/12/22 03:53:01;;;;;;;;;;;;;;;3.94;100.00;100259.28;5031120;28;19929;-74
2020/12/22 03:55:27;;;;;;;;;;;;;;;3.94;100.00;100245.88;5031142;28;19976;-74
2020/12/22 03:57:53;;;;;;;;;;;;;;;3.97;100.00;100245.69;5030897;28;20374;-74
2020/12/22 04:00:19;;;;;;;;;;;;;;;3.98;100.00;100239.34;5031005;28;19939;-74
2020/12/22 04:02:45;;;;;;;;;;;;;;;3.98;100.00;100226.81;5031155;28;19929;-73
2020/12/22 04:05:11;;;;;;;;;;;;;;;3.98;100.00;100232.19;5030698;28;19925;-74
2020/12/22 04:07:37;;;;;;;;;;;;;;;3.99;100.00;100227.66;5033297;28;19960;-73
2020/12/22 04:10:04;;;;;;;;;;;;;;;3.98;100.00;100229.50;5030942;28;19932;-73
2020/12/22 04:12:29;;;;;;;;;;;;;;;3.99;100.00;100208.84;5034983;28;20019;-74
2020/12/22 04:14:55;;;;;;;;;;;;;;;4.00;100.00;100221.34;5034832;28;20298;-73
2020/12/22 04:17:21;;;;;;;;;;;;;;;4.01;100.00;100210.50;5034497;28;19956;-73
2020/12/22 04:19:47;;;;;;;;;;;;;;;4.01;100.00;100194.38;5034717;28;20275;-73
2020/12/22 04:22:13;;;;;;;;;;;;;;;4.05;100.00;100191.47;5034537;28;19971;-73
2020/12/22 04:24:39;;;;;;;;;;;;;;;4.07;100.00;100189.59;5034683;28;19964;-73
2020/12/22 04:27:05;;;;;;;;;;;;;;;4.10;100.00;100186.69;5034253;28;20333;-73
2020/12/22 04:29:31;;;;;;;;;;;;;;;4.12;100.00;100191.00;5034461;28;19929;-73
2020/12/22 04:31:57;;;;;;;;;;;;;;;4.16;100.00;100173.72;5034460;28;20023;-73
2020/12/22 04:34:23;;;;;;;;;;;;;;;4.19;100.00;100175.38;5034430;28;19932;-74
2020/12/22 04:36:48;;;;;;;;;;;;;;;4.23;100.00;100166.16;5034063;28;20108;-73
2020/12/22 04:39:15;;;;;;;;;;;;;;;4.28;100.00;100168.56;5032998;28;20410;-72
2020/12/22 04:41:45;;;;;;;;;;;;;;;4.32;100.00;100138.69;5034325;28;20019;-72
2020/12/22 04:44:11;;;;;;;;;;;;;;;4.37;100.00;100146.47;5034217;28;19925;-72
2020/12/22 04:46:38;;;;;;;;;;;;;;;4.39;100.00;100141.84;5034109;28;19971;-72
2020/12/22 04:49:05;;;;;;;;;;;;;;;4.44;100.00;100137.03;5034199;28;20027;-72
2020/12/22 04:51:32;;;;;;;;;;;;;;;4.46;100.00;100143.19;5034216;28;19925;-72
2020/12/22 04:53:58;;;;;;;;;;;;;;;4.48;100.00;100135.88;5034034;28;19972;-72
2020/12/22 04:56:26;;;;;;;;;;;;;;;4.53;100.00;100133.75;5033805;28;20024;-72
2020/12/22 04:58:52;;;;;;;;;;;;;;;4.56;100.00;100137.19;5033719;28;19936;-72
2020/12/22 05:01:18;;;;;;;;;;;;;;;4.58;100.00;100137.97;5033967;28;20355;-72
2020/12/22 05:03:44;;;;;;;;;;;;;;;4.61;100.00;100127.00;5034060;28;19926;-72
2020/12/22 05:06:10;;;;;;;;;;;;;;;4.63;100.00;100125.94;5033771;28;19995;-75
2020/12/22 05:08:36;;;;;;;;;;;;;;;4.69;100.00;100122.00;5033639;28;19973;-74
2020/12/22 05:11:01;;;;;;;;;;;;;;;4.72;100.00;100132.53;5033735;28;19983;-74
2020/12/22 05:13:28;;;;;;;;;;;;;;;4.74;100.00;100117.16;5033810;28;19932;-74
2020/12/22 05:15:54;;;;;;;;;;;;;;;4.79;100.00;100119.56;5033256;28;20016;-74
2020/12/22 05:18:20;;;;;;;;;;;;;;;4.81;100.00;100115.78;5033513;28;19932;-74
2020/12/22 05:20:48;;;;;;;;;;;;;;;4.85;100.00;100117.31;5033516;28;19967;-74
2020/12/22 05:23:15;;;;;;;;;;;;;;;4.91;100.00;100109.81;5032703;28;19978;-74
2020/12/22 05:25:42;;;;;;;;;;;;;;;4.93;100.00;100100.66;5033213;28;19975;-74
2020/12/22 05:28:08;;;;;;;;;;;;;;;4.96;100.00;100111.22;5033289;28;20011;-74
2020/12/22 05:30:36;;;;;;;;;;;;;;;4.97;100.00;100102.19;5033526;28;19989;-74
2020/12/22 05:33:03;;;;;;;;;;;;;;;4.99;100.00;100099.38;5033435;28;19936;-75
2020/12/22 05:35:32;;;;;;;;;;;;;;;5.01;100.00;100097.44;5033228;28;20020;-74
2020/12/22 05:38:01;;;;;;;;;;;;;;;5.03;100.00;100087.44;5032882;28;20027;-74
2020/12/22 05:40:26;;;;;;;;;;;;;;;5.05;100.00;100079.25;5041458;28;19925;-74
2020/12/22 05:42:53;;;;;;;;;;;;;;;5.08;100.00;100077.22;5042989;28;19932;-74
2020/12/22 05:45:19;;;;;;;;;;;;;;;5.13;100.00;100066.13;5052698;28;20667;-74
2020/12/22 05:47:46;;;;;;;;;;;;;;;5.16;100.00;100065.94;5049075;28;19925;-74
2020/12/22 05:50:13;;;;;;;;;;;;;;;5.18;100.00;100058.63;5032888;28;20016;-75
2020/12/22 05:52:41;;;;;;;;;;;;;;;5.23;100.00;100061.00;5033165;28;20024;-75
2020/12/22 05:55:06;;;;;;;;;;;;;;;5.26;100.00;100061.63;5049776;28;20401;-75
2020/12/22 05:57:32;;;;;;;;;;;;;;;5.31;100.00;100061.31;5052505;28;19932;-75
2020/12/22 06:00:12;;;;;;;;;;;;;;;5.35;100.00;100060.13;5052330;28;19925;-75
2020/12/22 06:02:39;;;;;;;;;;;;;;;5.36;100.00;100054.66;5049489;28;19925;-74
2020/12/22 06:05:06;;;;;;;;;;;;;;;5.39;100.00;100058.94;5052393;28;20021;-74
2020/12/22 06:07:31;;;;;;;;;;;;;;;5.44;100.00;100047.84;5052220;28;20113;-74
2020/12/22 06:09:57;;;;;;;;;;;;;;;5.50;100.00;100029.44;5052080;28;20469;-75
2020/12/22 06:12:24;;;;;;;;;;;;;;;5.50;100.00;100034.81;5052026;28;19924;-75
2020/12/22 06:14:50;;;;;;;;;;;;;;;5.53;100.00;100026.53;5052039;28;20015;-74
2020/12/22 06:17:16;;;;;;;;;;;;;;;5.57;100.00;100029.00;5051726;28;20024;-74
2020/12/22 06:19:43;;;;;;;;;;;;;;;5.59;100.00;100021.69;5050257;28;19929;-74
2020/12/22 06:22:10;;;;;;;;;;;;;;;5.64;100.00;100019.53;5051831;28;20404;-74
2020/12/22 06:24:36;;;;;;;;;;;;;;;5.66;100.00;100018.41;5052053;28;20315;-73
2020/12/22 06:27:03;;;;;;;;;;;;;;;5.74;100.00;100017.03;5051912;28;19935;-75
2020/12/22 06:29:29;;;;;;;;;;;;;;;5.75;100.00;100011.53;5052024;28;19973;-74
2020/12/22 06:31:55;;;;;;;;;;;;;;;5.79;100.00;100004.94;5051930;28;20034;-74
2020/12/22 06:34:24;;;;;;;;;;;;;;;5.85;100.00;100004.50;5051589;28;20371;-74
2020/12/22 06:36:56;;;;;;;;;;;;;;;5.92;100.00;100001.34;5051438;28;20389;-74
2020/12/22 06:39:38;;;;;;;;;;;;;;;5.94;100.00;100004.81;5048434;28;20398;-74
2020/12/22 06:42:04;;;;;;;;;;;;;;;5.99;100.00;99999.97;5051915;28;20023;-75
2020/12/22 06:44:30;;;;;;;;;;;;;;;6.05;100.00;99988.72;5034554;28;19982;-74
2020/12/22 06:46:56;;;;;;;;;;;;;;;6.08;100.00;99988.53;5051399;28;20291;-75
2020/12/22 06:49:41;;;;;;;;;;;;;;;6.10;100.00;99996.47;5051084;28;19929;-75
2020/12/22 06:52:22;;;;;;;;;;;;;;;6.14;100.00;99982.66;5050437;28;20050;-75
2020/12/22 06:54:50;;;;;;;;;;;;;;;6.18;100.00;99977.91;5050850;28;19972;-73
2020/12/22 06:57:30;;;;;;;;;;;;;;;6.23;100.00;100012.59;5030827;28;19932;-75
2020/12/22 06:59:56;;;;;;;;;;;;;;;6.24;100.00;99977.44;5048768;28;19971;-75
2020/12/22 07:02:29;;;;;;;;;;;;;;;6.30;100.00;99965.34;5046020;28;20007;-76
2020/12/22 07:04:55;;;;;;;;;;;;;;;6.32;100.00;99998.41;5038416;28;20015;-73
2020/12/22 07:07:21;;;;;;;;;;;;;;;6.35;100.00;100000.91;5051157;28;19974;-73
2020/12/22 07:09:47;;;;;;;;;;;;;;;6.40;100.00;99987.94;5036442;28;19925;-73
2020/12/22 07:12:15;;;;;;;;;;;;;;;6.45;100.00;99982.19;5038533;28;19967;-73
2020/12/22 07:14:41;;;;;;;;;;;;;;;6.50;100.00;99978.16;5051194;28;20294;-73
2020/12/22 07:17:07;;;;;;;;;;;;;;;6.54;100.00;99979.63;5047306;28;19980;-73
2020/12/22 07:19:34;;;;;;;;;;;;;;;6.61;100.00;99979.19;5045029;28;19976;-73
2020/12/22 07:22:00;;;;;;;;;;;;;;;6.70;100.00;99978.47;5050768;28;19936;-72
2020/12/22 07:24:27;;;;;;;;;;;;;;;6.78;100.00;99970.66;5051357;28;19924;-72
2020/12/22 07:26:53;;;;;;;;;;;;;;;6.83;100.00;99971.16;5050590;28;19925;-72
2020/12/22 07:29:20;;;;;;;;;;;;;;;6.92;100.00;99976.81;5051193;28;19925;-72
2020/12/22 07:31:45;;;;;;;;;;;;;;;6.97;100.00;99969.22;5050946;28;19957;-72
2020/12/22 07:34:11;;;;;;;;;;;;;;;7.02;100.00;99981.38;5051302;28;20437;-72
2020/12/22 07:36:37;;;;;;;;;;;;;;;7.05;100.00;99974.88;5050743;28;19924;-73
2020/12/22 07:39:13;;;;;;;;;;;;;;;7.11;100.00;99960.91;5050977;28;19925;-73
2020/12/22 07:41:39;;;;;;;;;;;;;;;7.12;100.00;99986.03;5050569;28;20016;-72
2020/12/22 07:44:06;;;;;;;;;;;;;;;7.17;100.00;99973.91;5051007;28;20299;-72
2020/12/22 07:46:33;;;;;;;;;;;;;;;7.20;100.00;99976.38;5035177;28;20027;-73
2020/12/22 07:49:01;;;;;;;;;;;;;;;7.28;100.00;99974.91;5054840;28;20056;-72
2020/12/22 07:51:27;;;;;;;;;;;;;;;7.32;100.00;99979.94;5053755;28;19953;-73
2020/12/22 07:53:58;;;;;;;;;;;;;;;7.38;100.00;99976.75;5055111;28;19978;-72
2020/12/22 07:56:25;;;;;;;;;;;;;;;7.44;100.00;99980.81;5053775;28;19968;-72
2020/12/22 07:58:52;;;;;;;;;;;;;;;7.47;100.00;99968.88;5051086;28;19925;-73
2020/12/22 08:01:18;;;;;;;;;;;;;;;7.51;100.00;99973.09;5036081;28;19964;-73
2020/12/22 08:03:45;;;;;;;;;;;;;;;7.58;100.00;99978.84;5042843;28;20015;-72
2020/12/22 08:06:11;;;;;;;;;;;;;;;7.60;100.00;99971.47;5054557;28;20091;-73
2020/12/22 08:08:37;;;;;;;;;;;;;;;7.65;100.00;99967.41;5048567;28;20404;-73
2020/12/22 08:11:02;;;;;;;;;;;;;;;7.71;100.00;99960.66;5045368;28;19936;-74
2020/12/22 08:13:31;;;;;;;;;;;;;;;7.73;100.00;99972.19;5054570;28;19925;-73
2020/12/22 08:15:57;;;;;;;;;;;;;;;7.80;100.00;99961.72;5050914;28;19932;-73
2020/12/22 08:18:24;;;;;;;;;;;;;;;7.80;100.00;99973.41;5053996;28;20339;-73
2020/12/22 08:20:51;;;;;;;;;;;;;;;7.92;100.00;99957.16;5054220;28;20422;-73
2020/12/22 08:23:17;;;;;;;;;;;;;;;7.95;100.00;99959.63;5054394;28;19924;-73
2020/12/22 08:25:45;;;;;;;;;;;;;;;8.00;100.00;99965.50;5053869;28;19932;-73
2020/12/22 08:28:10;;;;;;;;;;;;;;;8.08;100.00;99962.16;5054261;28;19925;-73
2020/12/22 08:30:36;;;;;;;;;;;;;;;8.10;100.00;99968.31;5051963;28;19932;-73
2020/12/22 08:33:02;;;;;;;;;;;;;;;8.09;100.00;99928.75;5054505;28;19933;-73
2020/12/22 08:35:28;;;;;;;;;;;;;;;8.19;100.00;99973.81;5053760;28;19925;-74
2020/12/22 08:37:55;;;;;;;;;;;;;;;8.31;100.00;99954.81;5053606;28;20016;-73
2020/12/22 08:40:27;;;;;;;;;;;;;;;8.35;100.00;99976.09;5053727;28;19929;-73
2020/12/22 08:42:53;;;;;;;;;;;;;;;8.42;100.00;99976.44;5054147;28;20610;-73
2020/12/22 08:45:18;;;;;;;;;;;;;;;8.43;100.00;99970.03;5053880;28;20571;-73
2020/12/22 08:47:49;;;;;;;;;;;;;;;8.46;100.00;99990.59;5054025;28;19925;-73
2020/12/22 08:50:15;;;;;;;;;;;;;;;8.50;100.00;99986.66;5053770;28;19928;-73
2020/12/22 08:52:41;;;;;;;;;;;;;;;8.54;100.00;99993.50;5053660;28;20394;-74
2020/12/22 08:55:10;;;;;;;;;;;;;;;8.57;100.00;99985.13;5053543;28;19944;-73
2020/12/22 08:57:36;;;;;;;;;;;;;;;8.60;100.00;99989.44;5052032;28;19931;-73
2020/12/22 09:00:09;;;;;;;;;;;;;;;8.62;100.00;99991.00;5053569;28;20345;-73
2020/12/22 09:02:35;;;;;;;;;;;;;;;8.69;100.00;99994.91;5053734;28;19925;-74
2020/12/22 09:05:10;;;;;;;;;;;;;;;8.72;100.00;100001.91;5053703;28;20600;-73
2020/12/22 09:07:36;;;;;;;;;;;;;;;8.74;100.00;100016.19;5053140;28;19931;-74
2020/12/22 09:10:05;;;;;;;;;;;;;;;8.79;100.00;100004.94;5053321;28;19929;-73
2020/12/22 09:12:31;;;;;;;;;;;;;;;8.81;100.00;100014.66;5052801;28;19925;-74
2020/12/22 09:14:59;;;;;;;;;;;;;;;8.80;100.00;100021.03;5053689;28;19960;-74
2020/12/22 09:17:28;;;;;;;;;;;;;;;8.81;100.00;100022.78;5052726;28;19933;-73
2020/12/22 09:19:54;;;;;;;;;;;;;;;8.83;100.00;100012.69;5053492;28;19929;-74
2020/12/22 09:22:21;;;;;;;;;;;;;;;8.82;100.00;100013.66;5043993;28;19987;-73
2020/12/22 09:24:49;;;;;;;;;;;;;;;8.85;100.00;100015.25;5046902;28;19964;-73
2020/12/22 09:27:16;;;;;;;;;;;;;;;8.85;100.00;100026.94;5044625;28;20044;-73
2020/12/22 09:29:42;;;;;;;;;;;;;;;8.91;100.00;100016.56;5052976;28;19967;-73
2020/12/22 09:32:09;;;;;;;;;;;;;;;8.94;100.00;100016.31;5052869;28;19924;-73
2020/12/22 09:34:36;;;;;;;;;;;;;;;8.97;100.00;100021.47;5038145;28;20024;-73
2020/12/22 09:37:03;;;;;;;;;;;;;;;9.01;100.00;100017.50;5034669;28;20344;-73
2020/12/22 09:39:29;;;;;;;;;;;;;;;9.04;100.00;100023.50;5053335;28;20019;-74
2020/12/22 09:41:55;;;;;;;;;;;;;;;9.09;100.00;100019.56;5052732;28;20425;-73
2020/12/22 09:44:21;;;;;;;;;;;;;;;9.09;100.00;100020.41;5051850;28;19951;-73
2020/12/22 09:46:48;;;;;;;;;;;;;;;9.17;100.00;100017.91;5052585;28;19925;-73
2020/12/22 09:49:14;;;;;;;;;;;;;;;9.23;100.00;100016.50;5052256;28;20043;-74
2020/12/22 09:51:40;;;;;;;;;;;;;;;9.27;100.00;100014.38;5052909;28;19970;-74
2020/12/22 09:54:06;;;;;;;;;;;;;;;9.28;100.00;100013.41;5049924;28;19925;-73
2020/12/22 09:56:31;;;;;;;;;;;;;;;9.31;100.00;100014.00;5045355;28;20275;-73
2020/12/22 09:58:58;;;;;;;;;;;;;;;9.32;100.00;100015.69;5033020;28;20406;-73
2020/12/22 10:01:24;;;;;;;;;;;;;;;9.36;100.00;100013.59;5040098;28;20445;-73
2020/12/22 10:03:51;;;;;;;;;;;;;;;9.40;100.00;100014.19;5052651;28;19931;-73
2020/12/22 10:06:17;;;;;;;;;;;;;;;9.46;100.00;100021.75;5052233;28;19925;-73
2020/12/22 10:08:43;;;;;;;;;;;;;;;9.50;100.00;100024.06;5051797;28;19936;-73
2020/12/22 10:11:09;;;;;;;;;;;;;;;9.53;100.00;100026.50;5043830;28;19928;-73
2020/12/22 10:13:34;;;;;;;;;;;;;;;9.59;100.00;100013.41;5052561;28;20023;-73
2020/12/22 10:16:00;;;;;;;;;;;;;;;9.60;100.00;100013.28;5051570;28;19924;-73
2020/12/22 10:18:26;;;;;;;;;;;;;;;9.67;100.00;100017.19;5051801;28;19929;-73
2020/12/22 10:20:53;;;;;;;;;;;;;;;9.72;100.00;100016.75;5051039;28;19925;-72
2020/12/22 10:23:19;;;;;;;;;;;;;;;9.74;100.00;100019.31;5043193;28;20521;-74
2020/12/22 10:25:45;;;;;;;;;;;;;;;9.77;100.00;100009.06;5048573;28;19929;-73
2020/12/22 10:28:10;;;;;;;;;;;;;;;9.79;100.00;100023.31;5041248;28;19929;-73
2020/12/22 10:30:36;;;;;;;;;;;;;;;9.82;100.00;100017.66;5045873;28;19925;-73
2020/12/22 10:33:02;;;;;;;;;;;;;;;9.83;100.00;100008.50;5049432;28;20406;-74
2020/12/22 10:35:28;;;;;;;;;;;;;;;9.86;100.00;100007.38;5052123;28;19924;-72
2020/12/22 10:37:54;;;;;;;;;;;;;;;9.91;100.00;100009.69;5051298;28;19928;-73
2020/12/22 10:40:20;;;;;;;;;;;;;;;9.98;100.00;100008.13;5052014;28;20019;-72
2020/12/22 10:42:46;;;;;;;;;;;;;;;10.04;100.00;100004.88;5047787;28;19987;-72
2020/12/22 10:45:12;;;;;;;;;;;;;;;10.09;100.00;100012.56;5043233;28;19931;-72
2020/12/22 10:47:37;;;;;;;;;;;;;;;10.13;100.00;100012.19;5046850;28;19933;-72
2020/12/22 10:50:03;;;;;;;;;;;;;;;10.17;100.00;100010.06;5051327;28;20294;-73
2020/12/22 10:52:29;;;;;;;;;;;;;;;10.23;100.00;100012.19;5048853;28;19925;-72
2020/12/22 10:54:58;;;;;;;;;;;;;;;10.22;100.00;100013.19;5051128;28;20489;-72
2020/12/22 10:57:24;;;;;;;;;;;;;;;10.21;100.00;100017.75;5050672;28;20077;-72
2020/12/22 10:59:49;;;;;;;;;;;;;;;10.20;100.00;100026.03;5051764;28;19932;-72
2020/12/22 11:02:15;;;;;;;;;;;;;;;10.19;100.00;100030.59;5051456;28;19929;-72
2020/12/22 11:04:42;;;;;;;;;;;;;;;10.18;100.00;100028.00;5051355;28;19924;-72
2020/12/22 11:07:11;;;;;;;;;;;;;;;10.17;100.00;100032.59;5045678;28;20026;-72
2020/12/22 11:09:37;;;;;;;;;;;;;;;10.16;100.00;100033.59;5051428;28;20409;-72
2020/12/22 11:12:04;;;;;;;;;;;;;;;10.13;100.00;100051.97;5047886;28;19929;-72
2020/12/22 11:14:29;;;;;;;;;;;;;;;10.10;100.00;100050.44;5051076;28;20348;-72
2020/12/22 11:16:55;;;;;;;;;;;;;;;10.10;100.00;100052.25;5042778;28;19925;-72
2020/12/22 11:19:21;;;;;;;;;;;;;;;10.13;100.00;100058.28;5041942;28;19948;-72
2020/12/22 11:21:48;;;;;;;;;;;;;;;10.16;100.00;100055.28;5039727;28;19936;-72
2020/12/22 11:24:14;;;;;;;;;;;;;;;10.25;100.00;100034.63;5050372;28;19931;-73
2020/12/22 11:26:40;;;;;;;;;;;;;;;10.24;100.00;100053.75;5034135;28;19925;-72
2020/12/22 11:29:06;;;;;;;;;;;;;;;10.26;100.00;100057.16;5037962;28;19925;-72
2020/12/22 11:31:32;;;;;;;;;;;;;;;10.26;100.00;100052.63;5049131;28;20031;-73
2020/12/22 11:33:58;;;;;;;;;;;;;;;10.26;100.00;100052.63;5050979;28;20290;-72
2020/12/22 11:36:24;;;;;;;;;;;;;;;10.31;100.00;100057.59;5040811;28;19933;-72
2020/12/22 11:38:50;;;;;;;;;;;;;;;10.33;100.00;100066.47;5044512;28;19925;-72
2020/12/22 11:41:19;;;;;;;;;;;;;;;10.39;100.00;100065.94;5034884;28;19976;-74
2020/12/22 11:43:45;;;;;;;;;;;;;;;10.42;100.00;100068.34;5043202;28;20275;-73
2020/12/22 11:46:12;;;;;;;;;;;;;;;10.45;100.00;100067.22;5047735;28;19932;-75
2020/12/22 11:48:37;;;;;;;;;;;;;;;10.48;100.00;100065.09;5046924;28;20036;-75
2020/12/22 11:51:04;;;;;;;;;;;;;;;10.48;100.00;100061.53;5050155;28;19929;-73
2020/12/22 11:53:30;;;;;;;;;;;;;;;10.51;100.00;100062.09;5050491;28;20041;-74
2020/12/22 11:55:55;;;;;;;;;;;;;;;10.53;100.00;100062.81;5048265;28;20031;-74
2020/12/22 11:58:21;;;;;;;;;;;;;;;10.55;100.00;100063.56;5048989;28;19925;-73
2020/12/22 12:00:47;;;;;;;;;;;;;;;10.54;100.00;100056.41;5051119;28;19931;-73
2020/12/22 12:03:14;;;;;;;;;;;;;;;10.58;100.00;100067.81;5050114;28;19962;-73
2020/12/22 12:05:40;;;;;;;;;;;;;;;10.59;100.00;100074.13;5050596;28;19925;-73
2020/12/22 12:08:05;;;;;;;;;;;;;;;10.60;100.00;100073.97;5050599;28;19948;-73
2020/12/22 12:10:31;;;;;;;;;;;;;;;10.62;100.00;100076.53;5048844;28;20023;-73
2020/12/22 12:12:57;;;;;;;;;;;;;;;10.64;100.00;100072.69;5050333;28;19924;-72
2020/12/22 12:15:23;;;;;;;;;;;;;;;10.67;100.00;100080.53;5050328;28;19971;-73
2020/12/22 12:17:48;;;;;;;;;;;;;;;10.70;100.00;100074.84;5048778;28;19935;-72
2020/12/22 12:20:15;;;;;;;;;;;;;;;10.72;100.00;100080.97;5044109;28;20370;-73
2020/12/22 12:22:41;;;;;;;;;;;;;;;10.77;100.00;100083.28;5049647;28;20019;-74
2020/12/22 12:25:07;;;;;;;;;;;;;;;10.82;100.00;100072.88;5050524;28;19931;-73
2020/12/22 12:27:33;;;;;;;;;;;;;;;10.87;100.00;100084.13;5039312;28;19929;-72
2020/12/22 12:29:58;;;;;;;;;;;;;;;10.91;100.00;100079.28;5050313;28;20331;-72
2020/12/22 12:32:26;;;;;;;;;;;;;;;10.95;100.00;100091.56;5052201;28;19932;-72
2020/12/22 12:34:52;;;;;;;;;;;;;;;11.05;100.00;100087.00;5034490;28;19925;-67